sensor_id;sensor_type;location;lat;lon;timestamp;temperature;humidity
75961;SHT30;64644;48.914;2.254;2023-12-22T00:00:09;13.33;69.98
75961;SHT30;64644;48.914;2.254;2023-12-22T00:02:34;13.34;69.90
75961;SHT30;64644;48.914;2.254;2023-12-22T00:04:59;13.33;69.96
75961;SHT30;64644;48.914;2.254;2023-12-22T00:07:25;13.33;69.83
75961;SHT30;64644;48.914;2.254;2023-12-22T00:09:51;13.34;69.72
75961;SHT30;64644;48.914;2.254;2023-12-22T00:12:16;13.31;69.66
75961;SHT30;64644;48.914;2.254;2023-12-22T00:14:41;13.33;69.53
75961;SHT30;64644;48.914;2.254;2023-12-22T00:17:07;13.30;69.46
75961;SHT30;64644;48.914;2.254;2023-12-22T00:19:33;13.28;69.36
75961;SHT30;64644;48.914;2.254;2023-12-22T00:21:58;13.28;69.29
75961;SHT30;64644;48.914;2.254;2023-12-22T00:24:24;13.28;69.29
75961;SHT30;64644;48.914;2.254;2023-12-22T00:26:49;13.26;69.13
75961;SHT30;64644;48.914;2.254;2023-12-22T00:29:15;13.24;68.85
75961;SHT30;64644;48.914;2.254;2023-12-22T00:31:40;13.24;68.70
75961;SHT30;64644;48.914;2.254;2023-12-22T00:34:05;13.20;68.59
75961;SHT30;64644;48.914;2.254;2023-12-22T00:36:31;13.19;68.52
75961;SHT30;64644;48.914;2.254;2023-12-22T00:38:56;13.17;68.50
75961;SHT30;64644;48.914;2.254;2023-12-22T00:41:21;13.14;68.45
75961;SHT30;64644;48.914;2.254;2023-12-22T00:43:47;13.11;68.27
75961;SHT30;64644;48.914;2.254;2023-12-22T00:46:13;13.16;68.32
75961;SHT30;64644;48.914;2.254;2023-12-22T00:48:38;13.14;68.41
75961;SHT30;64644;48.914;2.254;2023-12-22T00:51:05;13.13;68.38
75961;SHT30;64644;48.914;2.254;2023-12-22T00:53:31;13.10;68.22
75961;SHT30;64644;48.914;2.254;2023-12-22T00:55:57;13.10;68.11
75961;SHT30;64644;48.914;2.254;2023-12-22T00:58:22;13.10;67.82
75961;SHT30;64644;48.914;2.254;2023-12-22T01:00:48;13.06;67.94
75961;SHT30;64644;48.914;2.254;2023-12-22T01:03:13;13.06;67.89
75961;SHT30;64644;48.914;2.254;2023-12-22T01:05:38;13.06;67.89
75961;SHT30;64644;48.914;2.254;2023-12-22T01:08:04;13.04;67.90
75961;SHT30;64644;48.914;2.254;2023-12-22T01:10:29;13.07;67.99
75961;SHT30;64644;48.914;2.254;2023-12-22T01:12:55;13.04;68.00
75961;SHT30;64644;48.914;2.254;2023-12-22T01:15:20;13.06;68.13
75961;SHT30;64644;48.914;2.254;2023-12-22T01:17:45;13.03;68.10
75961;SHT30;64644;48.914;2.254;2023-12-22T01:20:11;13.03;68.12
75961;SHT30;64644;48.914;2.254;2023-12-22T01:22:36;13.02;68.15
75961;SHT30;64644;48.914;2.254;2023-12-22T01:25:04;13.02;68.19
75961;SHT30;64644;48.914;2.254;2023-12-22T01:27:30;12.99;68.13
75961;SHT30;64644;48.914;2.254;2023-12-22T01:29:56;13.03;68.19
75961;SHT30;64644;48.914;2.254;2023-12-22T01:32:21;13.02;68.23
75961;SHT30;64644;48.914;2.254;2023-12-22T01:34:47;13.00;68.30
75961;SHT30;64644;48.914;2.254;2023-12-22T01:37:13;13.00;68.39
75961;SHT30;64644;48.914;2.254;2023-12-22T01:39:38;13.03;68.43
75961;SHT30;64644;48.914;2.254;2023-12-22T01:42:04;13.04;68.55
75961;SHT30;64644;48.914;2.254;2023-12-22T01:44:29;13.02;68.64
75961;SHT30;64644;48.914;2.254;2023-12-22T01:46:55;12.99;68.76
75961;SHT30;64644;48.914;2.254;2023-12-22T01:49:21;13.00;68.84
75961;SHT30;64644;48.914;2.254;2023-12-22T01:51:47;12.97;68.98
75961;SHT30;64644;48.914;2.254;2023-12-22T01:54:14;12.97;69.10
75961;SHT30;64644;48.914;2.254;2023-12-22T01:56:41;12.95;69.23
75961;SHT30;64644;48.914;2.254;2023-12-22T01:59:07;12.93;69.40
75961;SHT30;64644;48.914;2.254;2023-12-22T02:01:33;12.91;69.52
75961;SHT30;64644;48.914;2.254;2023-12-22T02:03:59;12.95;69.65
75961;SHT30;64644;48.914;2.254;2023-12-22T02:06:25;12.93;69.70
75961;SHT30;64644;48.914;2.254;2023-12-22T02:08:50;12.88;69.84
75961;SHT30;64644;48.914;2.254;2023-12-22T02:11:16;12.92;69.91
75961;SHT30;64644;48.914;2.254;2023-12-22T02:13:45;12.89;70.06
75961;SHT30;64644;48.914;2.254;2023-12-22T02:19:09;12.85;70.17
75961;SHT30;64644;48.914;2.254;2023-12-22T02:22:03;12.85;70.27
75961;SHT30;64644;48.914;2.254;2023-12-22T02:24:29;12.88;70.28
75961;SHT30;64644;48.914;2.254;2023-12-22T02:27:27;12.86;70.24
75961;SHT30;64644;48.914;2.254;2023-12-22T02:29:50;12.89;70.24
75961;SHT30;64644;48.914;2.254;2023-12-22T02:32:22;12.86;70.23
75961;SHT30;64644;48.914;2.254;2023-12-22T02:34:51;12.83;70.31
75961;SHT30;64644;48.914;2.254;2023-12-22T02:37:18;12.86;70.36
75961;SHT30;64644;48.914;2.254;2023-12-22T02:39:44;12.86;70.35
75961;SHT30;64644;48.914;2.254;2023-12-22T02:42:10;12.83;70.25
75961;SHT30;64644;48.914;2.254;2023-12-22T02:44:35;12.82;70.32
75961;SHT30;64644;48.914;2.254;2023-12-22T02:47:01;12.83;70.32
75961;SHT30;64644;48.914;2.254;2023-12-22T02:49:26;12.85;70.34
75961;SHT30;64644;48.914;2.254;2023-12-22T02:51:51;12.86;70.36
75961;SHT30;64644;48.914;2.254;2023-12-22T02:54:17;12.92;70.35
75961;SHT30;64644;48.914;2.254;2023-12-22T02:56:46;12.89;70.31
75961;SHT30;64644;48.914;2.254;2023-12-22T02:59:11;12.91;70.35
75961;SHT30;64644;48.914;2.254;2023-12-22T03:01:36;12.91;70.25
75961;SHT30;64644;48.914;2.254;2023-12-22T03:04:02;12.92;70.26
75961;SHT30;64644;48.914;2.254;2023-12-22T03:06:27;12.92;70.18
75961;SHT30;64644;48.914;2.254;2023-12-22T03:08:52;12.93;70.15
75961;SHT30;64644;48.914;2.254;2023-12-22T03:11:17;12.93;70.06
75961;SHT30;64644;48.914;2.254;2023-12-22T03:13:43;12.96;70.07
75961;SHT30;64644;48.914;2.254;2023-12-22T03:16:09;13.00;70.01
75961;SHT30;64644;48.914;2.254;2023-12-22T03:18:34;12.99;69.76
75961;SHT30;64644;48.914;2.254;2023-12-22T03:20:59;13.02;69.63
75961;SHT30;64644;48.914;2.254;2023-12-22T03:23:25;13.00;69.50
75961;SHT30;64644;48.914;2.254;2023-12-22T03:25:50;13.00;69.54
75961;SHT30;64644;48.914;2.254;2023-12-22T03:28:16;13.02;69.63
75961;SHT30;64644;48.914;2.254;2023-12-22T03:30:41;13.04;69.57
75961;SHT30;64644;48.914;2.254;2023-12-22T03:33:07;13.06;69.55
75961;SHT30;64644;48.914;2.254;2023-12-22T03:35:32;13.07;69.56
75961;SHT30;64644;48.914;2.254;2023-12-22T03:37:58;13.07;69.59
75961;SHT30;64644;48.914;2.254;2023-12-22T03:40:23;13.07;69.56
75961;SHT30;64644;48.914;2.254;2023-12-22T03:42:48;13.10;69.63
75961;SHT30;64644;48.914;2.254;2023-12-22T03:45:14;13.10;69.61
75961;SHT30;64644;48.914;2.254;2023-12-22T03:47:39;13.13;69.62
75961;SHT30;64644;48.914;2.254;2023-12-22T03:50:05;13.13;69.65
75961;SHT30;64644;48.914;2.254;2023-12-22T03:52:32;13.10;69.59
75961;SHT30;64644;48.914;2.254;2023-12-22T03:54:57;13.09;69.65
75961;SHT30;64644;48.914;2.254;2023-12-22T03:57:22;13.13;69.70
75961;SHT30;64644;48.914;2.254;2023-12-22T03:59:48;13.10;69.78
75961;SHT30;64644;48.914;2.254;2023-12-22T04:02:13;13.11;69.83
75961;SHT30;64644;48.914;2.254;2023-12-22T04:04:38;13.11;69.95
75961;SHT30;64644;48.914;2.254;2023-12-22T04:07:04;13.16;70.03
75961;SHT30;64644;48.914;2.254;2023-12-22T04:09:29;13.17;70.08
75961;SHT30;64644;48.914;2.254;2023-12-22T04:11:54;13.19;70.05
75961;SHT30;64644;48.914;2.254;2023-12-22T04:14:20;13.21;70.11
75961;SHT30;64644;48.914;2.254;2023-12-22T04:16:45;13.21;70.19
75961;SHT30;64644;48.914;2.254;2023-12-22T04:19:11;13.17;70.43
75961;SHT30;64644;48.914;2.254;2023-12-22T04:21:36;13.20;70.79
75961;SHT30;64644;48.914;2.254;2023-12-22T04:24:02;13.14;71.13
75961;SHT30;64644;48.914;2.254;2023-12-22T04:26:27;13.13;71.56
75961;SHT30;64644;48.914;2.254;2023-12-22T04:28:53;13.13;71.96
75961;SHT30;64644;48.914;2.254;2023-12-22T04:31:18;13.07;72.30
75961;SHT30;64644;48.914;2.254;2023-12-22T04:33:43;13.03;72.63
75961;SHT30;64644;48.914;2.254;2023-12-22T04:36:09;12.99;73.11
75961;SHT30;64644;48.914;2.254;2023-12-22T04:38:35;12.95;73.51
75961;SHT30;64644;48.914;2.254;2023-12-22T04:41:00;12.96;73.62
75961;SHT30;64644;48.914;2.254;2023-12-22T04:43:25;12.92;73.78
75961;SHT30;64644;48.914;2.254;2023-12-22T04:45:51;12.88;74.06
75961;SHT30;64644;48.914;2.254;2023-12-22T04:48:16;12.86;74.24
75961;SHT30;64644;48.914;2.254;2023-12-22T04:50:41;12.88;74.34
75961;SHT30;64644;48.914;2.254;2023-12-22T04:53:07;12.86;74.36
75961;SHT30;64644;48.914;2.254;2023-12-22T04:55:32;12.86;74.33
75961;SHT30;64644;48.914;2.254;2023-12-22T04:57:58;12.79;74.53
75961;SHT30;64644;48.914;2.254;2023-12-22T05:00:24;12.85;74.57
75961;SHT30;64644;48.914;2.254;2023-12-22T05:02:49;12.89;74.59
75961;SHT30;64644;48.914;2.254;2023-12-22T05:05:14;12.86;74.57
75961;SHT30;64644;48.914;2.254;2023-12-22T05:07:40;12.88;74.39
75961;SHT30;64644;48.914;2.254;2023-12-22T05:10:08;12.88;74.57
75961;SHT30;64644;48.914;2.254;2023-12-22T05:12:33;12.86;74.55
75961;SHT30;64644;48.914;2.254;2023-12-22T05:14:59;12.85;74.51
75961;SHT30;64644;48.914;2.254;2023-12-22T05:17:25;12.82;74.56
75961;SHT30;64644;48.914;2.254;2023-12-22T05:19:50;12.82;74.76
75961;SHT30;64644;48.914;2.254;2023-12-22T05:22:15;12.79;74.80
75961;SHT30;64644;48.914;2.254;2023-12-22T05:24:41;12.75;74.77
75961;SHT30;64644;48.914;2.254;2023-12-22T05:27:06;12.75;74.84
75961;SHT30;64644;48.914;2.254;2023-12-22T05:29:31;12.75;74.91
75961;SHT30;64644;48.914;2.254;2023-12-22T05:31:57;12.72;74.90
75961;SHT30;64644;48.914;2.254;2023-12-22T05:34:22;12.72;74.91
75961;SHT30;64644;48.914;2.254;2023-12-22T05:36:47;12.68;74.99
75961;SHT30;64644;48.914;2.254;2023-12-22T05:39:13;12.66;75.04
75961;SHT30;64644;48.914;2.254;2023-12-22T05:41:38;12.69;75.05
75961;SHT30;64644;48.914;2.254;2023-12-22T05:44:04;12.66;75.20
75961;SHT30;64644;48.914;2.254;2023-12-22T05:46:31;12.69;75.31
75961;SHT30;64644;48.914;2.254;2023-12-22T05:49:00;12.69;75.24
75961;SHT30;64644;48.914;2.254;2023-12-22T05:51:25;12.72;75.16
75961;SHT30;64644;48.914;2.254;2023-12-22T05:53:51;12.74;75.24
75961;SHT30;64644;48.914;2.254;2023-12-22T05:56:21;12.74;75.15
75961;SHT30;64644;48.914;2.254;2023-12-22T05:58:48;12.76;75.10
75961;SHT30;64644;48.914;2.254;2023-12-22T06:01:17;12.76;75.10
75961;SHT30;64644;48.914;2.254;2023-12-22T06:03:46;12.76;75.05
75961;SHT30;64644;48.914;2.254;2023-12-22T06:06:12;12.75;75.04
75961;SHT30;64644;48.914;2.254;2023-12-22T06:08:38;12.76;75.10
75961;SHT30;64644;48.914;2.254;2023-12-22T06:11:04;12.78;75.17
75961;SHT30;64644;48.914;2.254;2023-12-22T06:13:30;12.76;75.22
75961;SHT30;64644;48.914;2.254;2023-12-22T06:15:55;12.79;75.16
75961;SHT30;64644;48.914;2.254;2023-12-22T06:18:21;12.81;75.17
75961;SHT30;64644;48.914;2.254;2023-12-22T06:20:46;12.79;75.30
75961;SHT30;64644;48.914;2.254;2023-12-22T06:23:11;12.81;75.41
75961;SHT30;64644;48.914;2.254;2023-12-22T06:25:36;12.81;75.47
75961;SHT30;64644;48.914;2.254;2023-12-22T06:28:02;12.78;75.39
75961;SHT30;64644;48.914;2.254;2023-12-22T06:30:28;12.81;75.52
75961;SHT30;64644;48.914;2.254;2023-12-22T06:32:54;12.78;75.67
75961;SHT30;64644;48.914;2.254;2023-12-22T06:35:20;12.79;75.65
75961;SHT30;64644;48.914;2.254;2023-12-22T06:37:52;12.81;75.79
75961;SHT30;64644;48.914;2.254;2023-12-22T06:40:17;12.79;75.65
75961;SHT30;64644;48.914;2.254;2023-12-22T06:42:44;12.81;75.79
75961;SHT30;64644;48.914;2.254;2023-12-22T06:45:10;12.82;75.70
75961;SHT30;64644;48.914;2.254;2023-12-22T06:47:35;12.83;75.55
75961;SHT30;64644;48.914;2.254;2023-12-22T06:50:01;12.81;75.64
75961;SHT30;64644;48.914;2.254;2023-12-22T06:52:26;12.83;75.68
75961;SHT30;64644;48.914;2.254;2023-12-22T06:54:52;12.85;75.60
75961;SHT30;64644;48.914;2.254;2023-12-22T06:57:17;12.82;75.70
75961;SHT30;64644;48.914;2.254;2023-12-22T06:59:43;12.83;75.73
75961;SHT30;64644;48.914;2.254;2023-12-22T07:02:08;12.82;75.74
75961;SHT30;64644;48.914;2.254;2023-12-22T07:04:59;12.85;75.68
75961;SHT30;64644;48.914;2.254;2023-12-22T07:07:28;12.85;75.72
75961;SHT30;64644;48.914;2.254;2023-12-22T07:09:54;12.82;75.82
75961;SHT30;64644;48.914;2.254;2023-12-22T07:12:20;12.83;75.92
75961;SHT30;64644;48.914;2.254;2023-12-22T07:14:45;12.79;76.17
75961;SHT30;64644;48.914;2.254;2023-12-22T07:17:11;12.79;76.20
75961;SHT30;64644;48.914;2.254;2023-12-22T07:19:37;12.81;76.33
75961;SHT30;64644;48.914;2.254;2023-12-22T07:22:02;12.79;76.34
75961;SHT30;64644;48.914;2.254;2023-12-22T07:24:29;12.79;76.40
75961;SHT30;64644;48.914;2.254;2023-12-22T07:26:54;12.81;76.56
75961;SHT30;64644;48.914;2.254;2023-12-22T07:29:20;12.79;76.39
75961;SHT30;64644;48.914;2.254;2023-12-22T07:31:45;12.79;76.45
75961;SHT30;64644;48.914;2.254;2023-12-22T07:34:10;12.82;76.50
75961;SHT30;64644;48.914;2.254;2023-12-22T07:36:36;12.82;76.57
75961;SHT30;64644;48.914;2.254;2023-12-22T07:39:01;12.85;76.47
75961;SHT30;64644;48.914;2.254;2023-12-22T07:41:26;12.86;76.55
75961;SHT30;64644;48.914;2.254;2023-12-22T07:43:53;12.88;76.52
75961;SHT30;64644;48.914;2.254;2023-12-22T07:46:20;12.86;76.38
75961;SHT30;64644;48.914;2.254;2023-12-22T07:48:47;12.91;76.42
75961;SHT30;64644;48.914;2.254;2023-12-22T07:51:12;12.93;76.44
75961;SHT30;64644;48.914;2.254;2023-12-22T07:53:38;12.95;76.32
75961;SHT30;64644;48.914;2.254;2023-12-22T07:56:04;12.97;76.28
75961;SHT30;64644;48.914;2.254;2023-12-22T07:58:31;12.96;76.08
75961;SHT30;64644;48.914;2.254;2023-12-22T08:00:56;12.91;76.15
75961;SHT30;64644;48.914;2.254;2023-12-22T08:03:21;12.92;76.28
75961;SHT30;64644;48.914;2.254;2023-12-22T08:05:47;12.92;76.26
75961;SHT30;64644;48.914;2.254;2023-12-22T08:08:12;12.89;76.45
75961;SHT30;64644;48.914;2.254;2023-12-22T08:10:37;12.89;76.49
75961;SHT30;64644;48.914;2.254;2023-12-22T08:13:03;12.91;76.57
75961;SHT30;64644;48.914;2.254;2023-12-22T08:15:29;12.89;76.89
75961;SHT30;64644;48.914;2.254;2023-12-22T08:17:54;12.88;76.75
75961;SHT30;64644;48.914;2.254;2023-12-22T08:20:20;12.86;78.35
75961;SHT30;64644;48.914;2.254;2023-12-22T08:22:49;12.86;77.63
75961;SHT30;64644;48.914;2.254;2023-12-22T08:25:15;12.86;77.14
75961;SHT30;64644;48.914;2.254;2023-12-22T08:27:41;12.88;77.14
75961;SHT30;64644;48.914;2.254;2023-12-22T08:30:07;12.86;77.23
75961;SHT30;64644;48.914;2.254;2023-12-22T08:32:33;12.86;77.28
75961;SHT30;64644;48.914;2.254;2023-12-22T08:34:58;12.88;77.27
75961;SHT30;64644;48.914;2.254;2023-12-22T08:37:23;12.91;77.27
75961;SHT30;64644;48.914;2.254;2023-12-22T08:39:49;12.95;77.23
75961;SHT30;64644;48.914;2.254;2023-12-22T08:42:16;12.95;77.03
75961;SHT30;64644;48.914;2.254;2023-12-22T08:44:41;12.95;77.00
75961;SHT30;64644;48.914;2.254;2023-12-22T08:47:07;12.95;76.95
75961;SHT30;64644;48.914;2.254;2023-12-22T08:49:32;12.95;76.93
75961;SHT30;64644;48.914;2.254;2023-12-22T08:51:58;12.95;76.89
75961;SHT30;64644;48.914;2.254;2023-12-22T08:54:23;13.00;76.86
75961;SHT30;64644;48.914;2.254;2023-12-22T08:56:48;13.00;76.77
75961;SHT30;64644;48.914;2.254;2023-12-22T08:59:13;13.04;76.75
75961;SHT30;64644;48.914;2.254;2023-12-22T09:01:39;13.07;76.68
75961;SHT30;64644;48.914;2.254;2023-12-22T09:04:06;13.07;76.78
75961;SHT30;64644;48.914;2.254;2023-12-22T09:06:31;13.07;76.64
75961;SHT30;64644;48.914;2.254;2023-12-22T09:08:56;13.06;76.55
75961;SHT30;64644;48.914;2.254;2023-12-22T09:11:22;13.07;76.51
75961;SHT30;64644;48.914;2.254;2023-12-22T09:13:48;13.06;76.46
75961;SHT30;64644;48.914;2.254;2023-12-22T09:16:13;13.09;76.36
75961;SHT30;64644;48.914;2.254;2023-12-22T09:18:41;13.09;76.29
75961;SHT30;64644;48.914;2.254;2023-12-22T09:21:10;13.14;76.19
75961;SHT30;64644;48.914;2.254;2023-12-22T09:23:35;13.11;75.98
75961;SHT30;64644;48.914;2.254;2023-12-22T09:26:00;13.14;75.92
75961;SHT30;64644;48.914;2.254;2023-12-22T09:28:25;13.17;75.86
75961;SHT30;64644;48.914;2.254;2023-12-22T09:30:51;13.23;75.79
75961;SHT30;64644;48.914;2.254;2023-12-22T09:33:16;13.26;75.70
75961;SHT30;64644;48.914;2.254;2023-12-22T09:35:42;13.24;75.65
75961;SHT30;64644;48.914;2.254;2023-12-22T09:38:10;13.34;75.62
75961;SHT30;64644;48.914;2.254;2023-12-22T09:40:37;13.34;75.61
75961;SHT30;64644;48.914;2.254;2023-12-22T09:43:03;13.38;75.61
75961;SHT30;64644;48.914;2.254;2023-12-22T09:45:32;13.45;75.58
75961;SHT30;64644;48.914;2.254;2023-12-22T09:47:59;13.45;75.49
75961;SHT30;64644;48.914;2.254;2023-12-22T09:50:26;13.45;75.40
75961;SHT30;64644;48.914;2.254;2023-12-22T09:52:52;13.41;75.32
75961;SHT30;64644;48.914;2.254;2023-12-22T09:55:18;13.43;75.32
75961;SHT30;64644;48.914;2.254;2023-12-22T09:57:47;13.40;75.25
75961;SHT30;64644;48.914;2.254;2023-12-22T10:00:14;13.38;75.29
75961;SHT30;64644;48.914;2.254;2023-12-22T10:02:40;13.38;75.28
75961;SHT30;64644;48.914;2.254;2023-12-22T10:05:06;13.37;75.27
75961;SHT30;64644;48.914;2.254;2023-12-22T10:07:32;13.37;75.32
75961;SHT30;64644;48.914;2.254;2023-12-22T10:09:59;13.37;75.28
75961;SHT30;64644;48.914;2.254;2023-12-22T10:12:27;13.38;75.26
75961;SHT30;64644;48.914;2.254;2023-12-22T10:14:53;13.40;75.12
75961;SHT30;64644;48.914;2.254;2023-12-22T10:17:19;13.41;75.07
75961;SHT30;64644;48.914;2.254;2023-12-22T10:19:44;13.38;74.93
75961;SHT30;64644;48.914;2.254;2023-12-22T10:22:10;13.40;74.92
75961;SHT30;64644;48.914;2.254;2023-12-22T10:24:47;13.40;74.85
75961;SHT30;64644;48.914;2.254;2023-12-22T10:27:14;13.41;74.78
75961;SHT30;64644;48.914;2.254;2023-12-22T10:29:40;13.44;74.82
75961;SHT30;64644;48.914;2.254;2023-12-22T10:32:06;13.48;74.85
75961;SHT30;64644;48.914;2.254;2023-12-22T10:34:31;13.48;74.87
75961;SHT30;64644;48.914;2.254;2023-12-22T10:36:59;13.54;74.88
75961;SHT30;64644;48.914;2.254;2023-12-22T10:39:31;13.51;74.81
75961;SHT30;64644;48.914;2.254;2023-12-22T10:41:58;13.50;74.85
75961;SHT30;64644;48.914;2.254;2023-12-22T10:44:24;13.48;74.91
75961;SHT30;64644;48.914;2.254;2023-12-22T10:46:51;13.43;74.96
75961;SHT30;64644;48.914;2.254;2023-12-22T10:49:18;13.44;75.19
75961;SHT30;64644;48.914;2.254;2023-12-22T10:51:43;13.45;75.25
75961;SHT30;64644;48.914;2.254;2023-12-22T10:54:09;13.44;75.29
75961;SHT30;64644;48.914;2.254;2023-12-22T10:56:34;13.43;75.40
75961;SHT30;64644;48.914;2.254;2023-12-22T10:59:00;13.41;75.46
75961;SHT30;64644;48.914;2.254;2023-12-22T11:01:28;13.40;75.52
75961;SHT30;64644;48.914;2.254;2023-12-22T11:04:02;13.37;75.71
75961;SHT30;64644;48.914;2.254;2023-12-22T11:06:29;13.34;75.79
75961;SHT30;64644;48.914;2.254;2023-12-22T11:08:56;13.34;75.88
75961;SHT30;64644;48.914;2.254;2023-12-22T11:11:34;13.33;75.95
75961;SHT30;64644;48.914;2.254;2023-12-22T11:14:00;13.33;75.93
75961;SHT30;64644;48.914;2.254;2023-12-22T11:16:28;13.34;75.93
75961;SHT30;64644;48.914;2.254;2023-12-22T11:18:54;13.33;76.03
75961;SHT30;64644;48.914;2.254;2023-12-22T11:21:24;13.36;76.10
75961;SHT30;64644;48.914;2.254;2023-12-22T11:23:50;13.34;76.03
75961;SHT30;64644;48.914;2.254;2023-12-22T11:26:20;13.30;75.96
75961;SHT30;64644;48.914;2.254;2023-12-22T11:28:50;13.24;76.04
75961;SHT30;64644;48.914;2.254;2023-12-22T11:31:18;13.21;76.07
75961;SHT30;64644;48.914;2.254;2023-12-22T11:33:49;13.20;76.23
75961;SHT30;64644;48.914;2.254;2023-12-22T11:36:16;13.21;76.38
75961;SHT30;64644;48.914;2.254;2023-12-22T11:38:43;13.21;76.50
75961;SHT30;64644;48.914;2.254;2023-12-22T11:41:12;13.23;76.48
75961;SHT30;64644;48.914;2.254;2023-12-22T11:43:40;13.23;76.44
75961;SHT30;64644;48.914;2.254;2023-12-22T11:46:06;13.23;76.36
75961;SHT30;64644;48.914;2.254;2023-12-22T11:48:32;13.23;76.26
75961;SHT30;64644;48.914;2.254;2023-12-22T11:50:57;13.24;76.10
75961;SHT30;64644;48.914;2.254;2023-12-22T11:53:25;13.24;75.79
75961;SHT30;64644;48.914;2.254;2023-12-22T12:01:11;13.14;75.22
75961;SHT30;64644;48.914;2.254;2023-12-22T12:03:41;13.09;75.13
75961;SHT30;64644;48.914;2.254;2023-12-22T12:08:35;13.07;75.10
75961;SHT30;64644;48.914;2.254;2023-12-22T12:11:00;13.09;74.97
75961;SHT30;64644;48.914;2.254;2023-12-22T12:13:30;13.07;74.93
75961;SHT30;64644;48.914;2.254;2023-12-22T12:15:58;13.09;75.07
75961;SHT30;64644;48.914;2.254;2023-12-22T12:18:28;13.11;75.01
75961;SHT30;64644;48.914;2.254;2023-12-22T12:20:54;13.11;74.96
75961;SHT30;64644;48.914;2.254;2023-12-22T12:23:19;13.11;74.86
75961;SHT30;64644;48.914;2.254;2023-12-22T12:25:47;13.13;74.77
75961;SHT30;64644;48.914;2.254;2023-12-22T12:28:13;13.14;74.65
75961;SHT30;64644;48.914;2.254;2023-12-22T12:30:39;13.23;74.44
75961;SHT30;64644;48.914;2.254;2023-12-22T12:33:07;13.23;74.11
75961;SHT30;64644;48.914;2.254;2023-12-22T12:35:33;13.23;74.02
75961;SHT30;64644;48.914;2.254;2023-12-22T12:37:59;13.21;73.83
75961;SHT30;64644;48.914;2.254;2023-12-22T12:40:24;13.17;73.51
75961;SHT30;64644;48.914;2.254;2023-12-22T12:42:50;13.19;73.18
75961;SHT30;64644;48.914;2.254;2023-12-22T12:45:22;13.14;72.92
75961;SHT30;64644;48.914;2.254;2023-12-22T12:48:03;13.16;72.88
75961;SHT30;64644;48.914;2.254;2023-12-22T12:50:29;13.17;72.91
75961;SHT30;64644;48.914;2.254;2023-12-22T12:52:55;13.17;72.85
75961;SHT30;64644;48.914;2.254;2023-12-22T12:55:24;13.21;72.78
75961;SHT30;64644;48.914;2.254;2023-12-22T12:57:53;13.23;72.63
75961;SHT30;64644;48.914;2.254;2023-12-22T13:00:25;13.23;72.66
75961;SHT30;64644;48.914;2.254;2023-12-22T13:02:52;13.24;72.58
75961;SHT30;64644;48.914;2.254;2023-12-22T13:05:22;13.24;72.47
75961;SHT30;64644;48.914;2.254;2023-12-22T13:07:47;13.31;72.37
75961;SHT30;64644;48.914;2.254;2023-12-22T13:10:23;13.28;72.26
75961;SHT30;64644;48.914;2.254;2023-12-22T13:12:50;13.30;72.08
75961;SHT30;64644;48.914;2.254;2023-12-22T13:15:16;13.34;72.14
75961;SHT30;64644;48.914;2.254;2023-12-22T13:17:41;13.34;72.06
75961;SHT30;64644;48.914;2.254;2023-12-22T13:20:08;13.38;71.89
75961;SHT30;64644;48.914;2.254;2023-12-22T13:22:34;13.41;71.74
75961;SHT30;64644;48.914;2.254;2023-12-22T13:24:59;13.44;71.55
75961;SHT30;64644;48.914;2.254;2023-12-22T13:27:25;13.41;71.21
75961;SHT30;64644;48.914;2.254;2023-12-22T13:29:50;13.44;71.20
75961;SHT30;64644;48.914;2.254;2023-12-22T13:32:21;13.43;70.84
75961;SHT30;64644;48.914;2.254;2023-12-22T13:34:52;13.43;70.61
75961;SHT30;64644;48.914;2.254;2023-12-22T13:37:18;13.43;70.64
75961;SHT30;64644;48.914;2.254;2023-12-22T13:39:44;13.45;70.42
75961;SHT30;64644;48.914;2.254;2023-12-22T13:42:14;13.45;70.40
75961;SHT30;64644;48.914;2.254;2023-12-22T13:44:48;13.45;70.34
75961;SHT30;64644;48.914;2.254;2023-12-22T13:47:15;13.48;70.19
75961;SHT30;64644;48.914;2.254;2023-12-22T13:49:41;13.47;70.01
75961;SHT30;64644;48.914;2.254;2023-12-22T13:52:07;13.51;70.11
75961;SHT30;64644;48.914;2.254;2023-12-22T13:54:33;13.50;70.01
75961;SHT30;64644;48.914;2.254;2023-12-22T13:56:59;13.50;69.81
75961;SHT30;64644;48.914;2.254;2023-12-22T13:59:32;13.48;69.76
75961;SHT30;64644;48.914;2.254;2023-12-22T14:01:58;13.45;69.57
75961;SHT30;64644;48.914;2.254;2023-12-22T14:04:23;13.45;69.41
75961;SHT30;64644;48.914;2.254;2023-12-22T14:06:48;13.44;69.45
75961;SHT30;64644;48.914;2.254;2023-12-22T14:09:14;13.44;69.36
75961;SHT30;64644;48.914;2.254;2023-12-22T14:11:40;13.44;69.01
75961;SHT30;64644;48.914;2.254;2023-12-22T14:14:05;13.43;68.80
75961;SHT30;64644;48.914;2.254;2023-12-22T14:16:31;13.44;68.80
75961;SHT30;64644;48.914;2.254;2023-12-22T14:18:56;13.41;68.90
75961;SHT30;64644;48.914;2.254;2023-12-22T14:21:21;13.43;68.85
75961;SHT30;64644;48.914;2.254;2023-12-22T14:23:47;13.41;68.87
75961;SHT30;64644;48.914;2.254;2023-12-22T14:26:12;13.43;68.89
75961;SHT30;64644;48.914;2.254;2023-12-22T14:28:38;13.44;68.84
75961;SHT30;64644;48.914;2.254;2023-12-22T14:31:03;13.43;68.79
75961;SHT30;64644;48.914;2.254;2023-12-22T14:33:28;13.43;68.69
75961;SHT30;64644;48.914;2.254;2023-12-22T14:35:54;13.40;68.48
75961;SHT30;64644;48.914;2.254;2023-12-22T14:38:19;13.38;68.50
75961;SHT30;64644;48.914;2.254;2023-12-22T14:40:45;13.40;68.56
75961;SHT30;64644;48.914;2.254;2023-12-22T14:43:10;13.38;68.67
75961;SHT30;64644;48.914;2.254;2023-12-22T14:45:36;13.37;68.62
75961;SHT30;64644;48.914;2.254;2023-12-22T14:48:01;13.30;68.54
75961;SHT30;64644;48.914;2.254;2023-12-22T14:50:26;13.27;68.68
75961;SHT30;64644;48.914;2.254;2023-12-22T14:52:52;13.26;68.69
75961;SHT30;64644;48.914;2.254;2023-12-22T14:55:17;13.23;68.65
75961;SHT30;64644;48.914;2.254;2023-12-22T14:57:43;13.26;68.82
75961;SHT30;64644;48.914;2.254;2023-12-22T15:00:09;13.24;68.67
75961;SHT30;64644;48.914;2.254;2023-12-22T15:02:34;13.21;68.65
75961;SHT30;64644;48.914;2.254;2023-12-22T15:05:00;13.23;68.72
75961;SHT30;64644;48.914;2.254;2023-12-22T15:07:25;13.21;68.87
75961;SHT30;64644;48.914;2.254;2023-12-22T15:09:50;13.23;68.83
75961;SHT30;64644;48.914;2.254;2023-12-22T15:12:16;13.21;68.90
75961;SHT30;64644;48.914;2.254;2023-12-22T15:14:45;13.20;68.90
75961;SHT30;64644;48.914;2.254;2023-12-22T15:17:11;13.23;69.02
75961;SHT30;64644;48.914;2.254;2023-12-22T15:19:40;13.19;69.08
75961;SHT30;64644;48.914;2.254;2023-12-22T15:22:06;13.20;69.10
75961;SHT30;64644;48.914;2.254;2023-12-22T15:24:31;13.16;69.12
75961;SHT30;64644;48.914;2.254;2023-12-22T15:26:57;13.19;69.14
75961;SHT30;64644;48.914;2.254;2023-12-22T15:29:22;13.16;69.14
75961;SHT30;64644;48.914;2.254;2023-12-22T15:31:47;13.13;69.08
75961;SHT30;64644;48.914;2.254;2023-12-22T15:34:14;13.10;69.18